sensor_id;sensor_type;location;lat;lon;timestamp;P1;durP1;ratioP1;P2;durP2;ratioP2
21743;SDS011;11034;48.556;9.342;2022-07-19T00:01:52;3.53;;;1.98;;
21743;SDS011;11034;48.556;9.342;2022-07-19T00:04:20;2.90;;;2.00;;
21743;SDS011;11034;48.556;9.342;2022-07-19T00:06:48;4.88;;;2.00;;
21743;SDS011;11034;48.556;9.342;2022-07-19T00:09:17;3.90;;;2.10;;
21743;SDS011;11034;48.556;9.342;2022-07-19T00:11:45;3.10;;;2.10;;
21743;SDS011;11034;48.556;9.342;2022-07-19T00:14:13;8.68;;;2.10;;
21743;SDS011;11034;48.556;9.342;2022-07-19T00:16:42;2.33;;;1.63;;
21743;SDS011;11034;48.556;9.342;2022-07-19T00:19:10;2.28;;;1.65;;
21743;SDS011;11034;48.556;9.342;2022-07-19T00:21:38;5.63;;;1.88;;
21743;SDS011;11034;48.556;9.342;2022-07-19T00:24:06;6.03;;;2.05;;
21743;SDS011;11034;48.556;9.342;2022-07-19T00:26:36;2.28;;;1.80;;
21743;SDS011;11034;48.556;9.342;2022-07-19T00:29:04;2.90;;;1.80;;
21743;SDS011;11034;48.556;9.342;2022-07-19T00:31:32;5.50;;;1.90;;
21743;SDS011;11034;48.556;9.342;2022-07-19T00:34:00;2.92;;;1.98;;
21743;SDS011;11034;48.556;9.342;2022-07-19T00:36:28;5.22;;;1.67;;
21743;SDS011;11034;48.556;9.342;2022-07-19T00:38:56;5.93;;;1.90;;
21743;SDS011;11034;48.556;9.342;2022-07-19T00:41:25;3.22;;;1.90;;
21743;SDS011;11034;48.556;9.342;2022-07-19T00:43:54;3.70;;;2.00;;
21743;SDS011;11034;48.556;9.342;2022-07-19T00:46:23;3.08;;;1.75;;
21743;SDS011;11034;48.556;9.342;2022-07-19T00:48:51;2.25;;;1.80;;
21743;SDS011;11034;48.556;9.342;2022-07-19T00:51:20;3.88;;;2.22;;
21743;SDS011;11034;48.556;9.342;2022-07-19T00:53:49;5.28;;;2.00;;
21743;SDS011;11034;48.556;9.342;2022-07-19T00:56:19;4.63;;;2.30;;
21743;SDS011;11034;48.556;9.342;2022-07-19T00:58:48;3.63;;;1.77;;
21743;SDS011;11034;48.556;9.342;2022-07-19T01:01:18;4.18;;;2.00;;
21743;SDS011;11034;48.556;9.342;2022-07-19T01:03:46;2.53;;;1.90;;
21743;SDS011;11034;48.556;9.342;2022-07-19T01:06:15;5.13;;;2.10;;
21743;SDS011;11034;48.556;9.342;2022-07-19T01:08:43;2.47;;;1.73;;
21743;SDS011;11034;48.556;9.342;2022-07-19T01:11:11;3.83;;;1.88;;
21743;SDS011;11034;48.556;9.342;2022-07-19T01:13:39;5.43;;;1.92;;
21743;SDS011;11034;48.556;9.342;2022-07-19T01:16:08;3.10;;;1.95;;
21743;SDS011;11034;48.556;9.342;2022-07-19T01:18:37;3.97;;;2.10;;
21743;SDS011;11034;48.556;9.342;2022-07-19T01:21:05;3.45;;;2.10;;
21743;SDS011;11034;48.556;9.342;2022-07-19T01:23:37;3.92;;;2.40;;
21743;SDS011;11034;48.556;9.342;2022-07-19T01:26:05;3.28;;;1.92;;
21743;SDS011;11034;48.556;9.342;2022-07-19T01:28:34;8.95;;;3.20;;
21743;SDS011;11034;48.556;9.342;2022-07-19T01:31:02;3.67;;;2.55;;
21743;SDS011;11034;48.556;9.342;2022-07-19T01:33:30;3.40;;;2.40;;
21743;SDS011;11034;48.556;9.342;2022-07-19T01:35:58;4.78;;;2.38;;
21743;SDS011;11034;48.556;9.342;2022-07-19T01:38:26;2.90;;;2.05;;
21743;SDS011;11034;48.556;9.342;2022-07-19T01:40:56;4.47;;;2.08;;
21743;SDS011;11034;48.556;9.342;2022-07-19T01:43:25;2.85;;;2.10;;
21743;SDS011;11034;48.556;9.342;2022-07-19T01:45:53;3.15;;;1.95;;
21743;SDS011;11034;48.556;9.342;2022-07-19T01:48:22;2.28;;;2.08;;
21743;SDS011;11034;48.556;9.342;2022-07-19T01:50:51;4.85;;;2.38;;
21743;SDS011;11034;48.556;9.342;2022-07-19T01:53:19;5.03;;;2.90;;
21743;SDS011;11034;48.556;9.342;2022-07-19T01:55:47;5.15;;;2.60;;
21743;SDS011;11034;48.556;9.342;2022-07-19T01:58:16;3.05;;;2.50;;
21743;SDS011;11034;48.556;9.342;2022-07-19T02:00:45;4.05;;;2.70;;
21743;SDS011;11034;48.556;9.342;2022-07-19T02:03:13;5.38;;;2.30;;
21743;SDS011;11034;48.556;9.342;2022-07-19T02:05:46;3.22;;;2.63;;
21743;SDS011;11034;48.556;9.342;2022-07-19T02:08:14;2.97;;;2.58;;
21743;SDS011;11034;48.556;9.342;2022-07-19T02:10:42;6.25;;;2.60;;
21743;SDS011;11034;48.556;9.342;2022-07-19T02:13:10;4.18;;;2.58;;
21743;SDS011;11034;48.556;9.342;2022-07-19T02:15:39;4.60;;;2.60;;
21743;SDS011;11034;48.556;9.342;2022-07-19T02:18:08;3.60;;;2.70;;
21743;SDS011;11034;48.556;9.342;2022-07-19T02:20:36;3.28;;;2.40;;
21743;SDS011;11034;48.556;9.342;2022-07-19T02:23:04;5.18;;;2.58;;
21743;SDS011;11034;48.556;9.342;2022-07-19T02:25:32;6.03;;;3.00;;
21743;SDS011;11034;48.556;9.342;2022-07-19T02:28:00;6.35;;;2.53;;
21743;SDS011;11034;48.556;9.342;2022-07-19T02:30:28;6.55;;;2.80;;
21743;SDS011;11034;48.556;9.342;2022-07-19T02:32:58;4.68;;;2.50;;
21743;SDS011;11034;48.556;9.342;2022-07-19T02:35:26;4.78;;;2.55;;
21743;SDS011;11034;48.556;9.342;2022-07-19T02:37:54;5.25;;;2.35;;
21743;SDS011;11034;48.556;9.342;2022-07-19T02:40:22;4.22;;;2.40;;
21743;SDS011;11034;48.556;9.342;2022-07-19T02:42:50;4.18;;;2.40;;
21743;SDS011;11034;48.556;9.342;2022-07-19T02:45:18;4.45;;;2.40;;
21743;SDS011;11034;48.556;9.342;2022-07-19T02:47:46;3.85;;;2.40;;
21743;SDS011;11034;48.556;9.342;2022-07-19T02:50:15;7.22;;;2.72;;
21743;SDS011;11034;48.556;9.342;2022-07-19T02:52:43;4.53;;;2.50;;
21743;SDS011;11034;48.556;9.342;2022-07-19T02:55:11;4.30;;;2.50;;
21743;SDS011;11034;48.556;9.342;2022-07-19T02:57:39;4.85;;;2.45;;
21743;SDS011;11034;48.556;9.342;2022-07-19T03:00:08;5.63;;;2.67;;
21743;SDS011;11034;48.556;9.342;2022-07-19T03:02:36;2.75;;;2.40;;
21743;SDS011;11034;48.556;9.342;2022-07-19T03:05:05;7.03;;;2.70;;
21743;SDS011;11034;48.556;9.342;2022-07-19T03:07:35;5.78;;;2.60;;
21743;SDS011;11034;48.556;9.342;2022-07-19T03:10:03;10.63;;;3.33;;
21743;SDS011;11034;48.556;9.342;2022-07-19T03:12:32;4.43;;;2.42;;
21743;SDS011;11034;48.556;9.342;2022-07-19T03:15:00;4.47;;;2.70;;
21743;SDS011;11034;48.556;9.342;2022-07-19T03:17:28;4.07;;;2.40;;
21743;SDS011;11034;48.556;9.342;2022-07-19T03:19:57;4.65;;;1.80;;
21743;SDS011;11034;48.556;9.342;2022-07-19T03:22:25;3.03;;;2.20;;
21743;SDS011;11034;48.556;9.342;2022-07-19T03:24:54;3.35;;;2.00;;
21743;SDS011;11034;48.556;9.342;2022-07-19T03:27:23;3.03;;;2.13;;
21743;SDS011;11034;48.556;9.342;2022-07-19T03:29:51;7.30;;;2.05;;
21743;SDS011;11034;48.556;9.342;2022-07-19T03:32:19;3.63;;;1.83;;
21743;SDS011;11034;48.556;9.342;2022-07-19T03:34:47;3.60;;;2.15;;
21743;SDS011;11034;48.556;9.342;2022-07-19T03:37:15;5.20;;;2.10;;
21743;SDS011;11034;48.556;9.342;2022-07-19T03:39:43;2.35;;;1.85;;
21743;SDS011;11034;48.556;9.342;2022-07-19T03:42:13;6.45;;;1.88;;
21743;SDS011;11034;48.556;9.342;2022-07-19T03:44:41;5.95;;;2.13;;
21743;SDS011;11034;48.556;9.342;2022-07-19T03:47:09;3.72;;;2.50;;
21743;SDS011;11034;48.556;9.342;2022-07-19T03:49:37;5.07;;;2.30;;
21743;SDS011;11034;48.556;9.342;2022-07-19T03:52:05;5.95;;;2.08;;
21743;SDS011;11034;48.556;9.342;2022-07-19T03:54:33;3.65;;;2.25;;
21743;SDS011;11034;48.556;9.342;2022-07-19T03:57:01;2.47;;;2.00;;
21743;SDS011;11034;48.556;9.342;2022-07-19T03:59:31;2.63;;;1.90;;
21743;SDS011;11034;48.556;9.342;2022-07-19T04:01:59;4.28;;;2.38;;
21743;SDS011;11034;48.556;9.342;2022-07-19T04:04:27;4.53;;;2.22;;
21743;SDS011;11034;48.556;9.342;2022-07-19T04:06:56;4.72;;;2.70;;
21743;SDS011;11034;48.556;9.342;2022-07-19T04:09:24;3.35;;;2.40;;
21743;SDS011;11034;48.556;9.342;2022-07-19T04:11:53;2.92;;;2.28;;
21743;SDS011;11034;48.556;9.342;2022-07-19T04:14:21;5.22;;;2.50;;
21743;SDS011;11034;48.556;9.342;2022-07-19T04:16:50;6.07;;;3.03;;
21743;SDS011;11034;48.556;9.342;2022-07-19T04:19:19;3.92;;;2.75;;
21743;SDS011;11034;48.556;9.342;2022-07-19T04:21:47;6.68;;;2.60;;
21743;SDS011;11034;48.556;9.342;2022-07-19T04:24:15;5.65;;;2.70;;
21743;SDS011;11034;48.556;9.342;2022-07-19T04:26:43;4.18;;;2.35;;
21743;SDS011;11034;48.556;9.342;2022-07-19T04:29:11;2.97;;;2.17;;
21743;SDS011;11034;48.556;9.342;2022-07-19T04:31:39;3.22;;;2.20;;
21743;SDS011;11034;48.556;9.342;2022-07-19T04:34:09;3.40;;;2.33;;
21743;SDS011;11034;48.556;9.342;2022-07-19T04:36:37;2.78;;;2.20;;
21743;SDS011;11034;48.556;9.342;2022-07-19T04:39:05;6.78;;;2.40;;
21743;SDS011;11034;48.556;9.342;2022-07-19T04:41:33;4.55;;;2.33;;
21743;SDS011;11034;48.556;9.342;2022-07-19T04:44:02;4.68;;;2.08;;
21743;SDS011;11034;48.556;9.342;2022-07-19T04:46:30;5.65;;;2.60;;
21743;SDS011;11034;48.556;9.342;2022-07-19T04:48:58;3.47;;;2.00;;
21743;SDS011;11034;48.556;9.342;2022-07-19T04:51:27;3.97;;;2.60;;
21743;SDS011;11034;48.556;9.342;2022-07-19T04:53:55;5.07;;;2.40;;
21743;SDS011;11034;48.556;9.342;2022-07-19T04:56:23;4.75;;;2.05;;
21743;SDS011;11034;48.556;9.342;2022-07-19T04:58:51;5.32;;;2.58;;
21743;SDS011;11034;48.556;9.342;2022-07-19T05:01:20;6.53;;;2.35;;
21743;SDS011;11034;48.556;9.342;2022-07-19T05:03:48;3.90;;;2.25;;
21743;SDS011;11034;48.556;9.342;2022-07-19T05:06:16;5.85;;;2.30;;
21743;SDS011;11034;48.556;9.342;2022-07-19T05:08:45;4.90;;;2.13;;
21743;SDS011;11034;48.556;9.342;2022-07-19T05:11:13;8.90;;;2.50;;
21743;SDS011;11034;48.556;9.342;2022-07-19T05:13:41;6.47;;;2.17;;
21743;SDS011;11034;48.556;9.342;2022-07-19T05:16:09;4.55;;;2.20;;
21743;SDS011;11034;48.556;9.342;2022-07-19T05:18:38;2.95;;;2.22;;
21743;SDS011;11034;48.556;9.342;2022-07-19T05:21:07;6.32;;;2.55;;
21743;SDS011;11034;48.556;9.342;2022-07-19T05:23:35;4.15;;;2.40;;
21743;SDS011;11034;48.556;9.342;2022-07-19T05:26:05;2.80;;;2.00;;
21743;SDS011;11034;48.556;9.342;2022-07-19T05:28:33;3.30;;;2.10;;
21743;SDS011;11034;48.556;9.342;2022-07-19T05:31:02;6.28;;;2.15;;
21743;SDS011;11034;48.556;9.342;2022-07-19T05:33:31;4.15;;;2.20;;
21743;SDS011;11034;48.556;9.342;2022-07-19T05:35:59;3.17;;;2.15;;
21743;SDS011;11034;48.556;9.342;2022-07-19T05:38:27;4.40;;;2.03;;
21743;SDS011;11034;48.556;9.342;2022-07-19T05:40:56;5.53;;;2.25;;
21743;SDS011;11034;48.556;9.342;2022-07-19T05:43:25;6.25;;;2.20;;
21743;SDS011;11034;48.556;9.342;2022-07-19T05:45:53;6.70;;;2.40;;
21743;SDS011;11034;48.556;9.342;2022-07-19T05:48:21;3.42;;;2.30;;
21743;SDS011;11034;48.556;9.342;2022-07-19T05:50:49;6.70;;;2.25;;
21743;SDS011;11034;48.556;9.342;2022-07-19T05:53:17;3.88;;;2.30;;
21743;SDS011;11034;48.556;9.342;2022-07-19T05:55:48;5.93;;;2.20;;
21743;SDS011;11034;48.556;9.342;2022-07-19T05:58:16;5.40;;;2.50;;
21743;SDS011;11034;48.556;9.342;2022-07-19T06:00:46;2.50;;;2.00;;
21743;SDS011;11034;48.556;9.342;2022-07-19T06:03:28;2.33;;;2.13;;
21743;SDS011;11034;48.556;9.342;2022-07-19T06:05:56;5.20;;;2.13;;
21743;SDS011;11034;48.556;9.342;2022-07-19T06:08:24;3.17;;;2.05;;
21743;SDS011;11034;48.556;9.342;2022-07-19T06:10:53;5.97;;;2.60;;
21743;SDS011;11034;48.556;9.342;2022-07-19T06:13:21;4.10;;;2.35;;
21743;SDS011;11034;48.556;9.342;2022-07-19T06:15:50;3.72;;;2.30;;
21743;SDS011;11034;48.556;9.342;2022-07-19T06:18:19;4.53;;;2.28;;
21743;SDS011;11034;48.556;9.342;2022-07-19T06:20:47;3.92;;;2.38;;
21743;SDS011;11034;48.556;9.342;2022-07-19T06:23:15;7.68;;;2.90;;
21743;SDS011;11034;48.556;9.342;2022-07-19T06:25:45;3.33;;;2.25;;
21743;SDS011;11034;48.556;9.342;2022-07-19T06:28:13;5.22;;;2.20;;
21743;SDS011;11034;48.556;9.342;2022-07-19T06:30:41;5.28;;;2.67;;
21743;SDS011;11034;48.556;9.342;2022-07-19T06:33:11;4.20;;;2.50;;
21743;SDS011;11034;48.556;9.342;2022-07-19T06:35:40;5.40;;;2.50;;
21743;SDS011;11034;48.556;9.342;2022-07-19T06:38:11;4.55;;;2.50;;
21743;SDS011;11034;48.556;9.342;2022-07-19T06:40:40;5.22;;;2.08;;
21743;SDS011;11034;48.556;9.342;2022-07-19T06:43:08;6.05;;;2.47;;
21743;SDS011;11034;48.556;9.342;2022-07-19T06:45:37;3.67;;;2.35;;
21743;SDS011;11034;48.556;9.342;2022-07-19T06:48:06;4.78;;;2.75;;
21743;SDS011;11034;48.556;9.342;2022-07-19T06:50:35;4.57;;;2.47;;
21743;SDS011;11034;48.556;9.342;2022-07-19T06:53:06;4.47;;;2.47;;
21743;SDS011;11034;48.556;9.342;2022-07-19T06:55:35;2.72;;;2.40;;
21743;SDS011;11034;48.556;9.342;2022-07-19T06:58:03;5.00;;;2.40;;
21743;SDS011;11034;48.556;9.342;2022-07-19T07:00:31;4.75;;;2.58;;
21743;SDS011;11034;48.556;9.342;2022-07-19T07:03:00;3.10;;;2.60;;
21743;SDS011;11034;48.556;9.342;2022-07-19T07:05:28;7.10;;;2.90;;
21743;SDS011;11034;48.556;9.342;2022-07-19T07:07:58;5.68;;;2.50;;
21743;SDS011;11034;48.556;9.342;2022-07-19T07:10:26;4.57;;;2.60;;
21743;SDS011;11034;48.556;9.342;2022-07-19T07:12:54;5.78;;;2.60;;
21743;SDS011;11034;48.556;9.342;2022-07-19T07:15:22;6.95;;;2.50;;
21743;SDS011;11034;48.556;9.342;2022-07-19T07:17:50;4.68;;;2.58;;
21743;SDS011;11034;48.556;9.342;2022-07-19T07:20:18;5.75;;;2.60;;
21743;SDS011;11034;48.556;9.342;2022-07-19T07:22:47;5.30;;;2.60;;
21743;SDS011;11034;48.556;9.342;2022-07-19T07:25:16;3.90;;;2.55;;
21743;SDS011;11034;48.556;9.342;2022-07-19T07:27:44;6.28;;;2.60;;
21743;SDS011;11034;48.556;9.342;2022-07-19T07:30:13;6.10;;;2.60;;
21743;SDS011;11034;48.556;9.342;2022-07-19T07:32:41;8.23;;;2.67;;
21743;SDS011;11034;48.556;9.342;2022-07-19T07:35:09;5.72;;;2.78;;
21743;SDS011;11034;48.556;9.342;2022-07-19T07:37:37;5.35;;;2.55;;
21743;SDS011;11034;48.556;9.342;2022-07-19T07:40:05;4.35;;;2.20;;
21743;SDS011;11034;48.556;9.342;2022-07-19T07:42:35;7.53;;;2.45;;
21743;SDS011;11034;48.556;9.342;2022-07-19T07:45:04;3.92;;;2.17;;
21743;SDS011;11034;48.556;9.342;2022-07-19T07:47:33;3.47;;;2.00;;
21743;SDS011;11034;48.556;9.342;2022-07-19T07:50:02;5.38;;;2.20;;
21743;SDS011;11034;48.556;9.342;2022-07-19T07:52:31;3.83;;;2.15;;
21743;SDS011;11034;48.556;9.342;2022-07-19T07:54:59;2.55;;;1.95;;
21743;SDS011;11034;48.556;9.342;2022-07-19T07:57:48;4.72;;;2.30;;
21743;SDS011;11034;48.556;9.342;2022-07-19T08:00:16;7.45;;;2.10;;
21743;SDS011;11034;48.556;9.342;2022-07-19T08:02:45;4.60;;;2.10;;
21743;SDS011;11034;48.556;9.342;2022-07-19T08:05:19;5.70;;;2.15;;
21743;SDS011;11034;48.556;9.342;2022-07-19T08:07:47;5.05;;;2.20;;
21743;SDS011;11034;48.556;9.342;2022-07-19T08:10:18;3.50;;;2.97;;
21743;SDS011;11034;48.556;9.342;2022-07-19T08:12:49;2.28;;;1.90;;
21743;SDS011;11034;48.556;9.342;2022-07-19T08:15:17;6.75;;;2.10;;
21743;SDS011;11034;48.556;9.342;2022-07-19T08:17:46;3.13;;;2.10;;
21743;SDS011;11034;48.556;9.342;2022-07-19T08:20:15;4.22;;;2.10;;
21743;SDS011;11034;48.556;9.342;2022-07-19T08:22:43;3.25;;;2.22;;
21743;SDS011;11034;48.556;9.342;2022-07-19T08:25:12;5.47;;;2.33;;
21743;SDS011;11034;48.556;9.342;2022-07-19T08:27:43;6.85;;;1.95;;
21743;SDS011;11034;48.556;9.342;2022-07-19T08:30:13;13.52;;;2.00;;
21743;SDS011;11034;48.556;9.342;2022-07-19T08:32:41;4.28;;;2.28;;
21743;SDS011;11034;48.556;9.342;2022-07-19T08:35:09;5.75;;;2.20;;
21743;SDS011;11034;48.556;9.342;2022-07-19T08:37:38;3.70;;;2.10;;
21743;SDS011;11034;48.556;9.342;2022-07-19T08:40:07;4.97;;;1.90;;
21743;SDS011;11034;48.556;9.342;2022-07-19T08:42:36;3.85;;;2.10;;
21743;SDS011;11034;48.556;9.342;2022-07-19T08:45:06;6.72;;;2.60;;
21743;SDS011;11034;48.556;9.342;2022-07-19T08:47:37;8.35;;;2.20;;
21743;SDS011;11034;48.556;9.342;2022-07-19T08:50:06;4.32;;;2.42;;
21743;SDS011;11034;48.556;9.342;2022-07-19T08:52:37;4.85;;;2.40;;
21743;SDS011;11034;48.556;9.342;2022-07-19T08:55:06;6.57;;;2.33;;
21743;SDS011;11034;48.556;9.342;2022-07-19T08:57:36;4.00;;;2.20;;
21743;SDS011;11034;48.556;9.342;2022-07-19T09:00:21;6.13;;;2.53;;
21743;SDS011;11034;48.556;9.342;2022-07-19T09:02:52;5.15;;;2.65;;
21743;SDS011;11034;48.556;9.342;2022-07-19T09:05:21;3.63;;;2.45;;
21743;SDS011;11034;48.556;9.342;2022-07-19T09:08:03;6.93;;;2.80;;
21743;SDS011;11034;48.556;9.342;2022-07-19T09:10:35;6.03;;;2.78;;
21743;SDS011;11034;48.556;9.342;2022-07-19T09:13:05;5.30;;;2.90;;
21743;SDS011;11034;48.556;9.342;2022-07-19T09:15:36;6.43;;;2.88;;
21743;SDS011;11034;48.556;9.342;2022-07-19T09:18:10;7.43;;;2.60;;
21743;SDS011;11034;48.556;9.342;2022-07-19T09:20:40;5.03;;;2.58;;
21743;SDS011;11034;48.556;9.342;2022-07-19T09:23:09;5.07;;;2.60;;
21743;SDS011;11034;48.556;9.342;2022-07-19T09:25:39;5.80;;;2.40;;
21743;SDS011;11034;48.556;9.342;2022-07-19T09:28:08;5.38;;;2.70;;
21743;SDS011;11034;48.556;9.342;2022-07-19T09:30:37;4.28;;;2.55;;
21743;SDS011;11034;48.556;9.342;2022-07-19T09:33:14;4.57;;;2.35;;
21743;SDS011;11034;48.556;9.342;2022-07-19T09:35:45;6.47;;;2.40;;
21743;SDS011;11034;48.556;9.342;2022-07-19T09:38:22;7.93;;;2.42;;
21743;SDS011;11034;48.556;9.342;2022-07-19T09:40:52;7.28;;;2.35;;
21743;SDS011;11034;48.556;9.342;2022-07-19T09:43:21;3.70;;;2.60;;
21743;SDS011;11034;48.556;9.342;2022-07-19T09:46:26;5.75;;;2.88;;
21743;SDS011;11034;48.556;9.342;2022-07-19T09:49:02;6.97;;;2.78;;
21743;SDS011;11034;48.556;9.342;2022-07-19T09:51:32;7.70;;;2.85;;
21743;SDS011;11034;48.556;9.342;2022-07-19T09:54:02;5.53;;;2.80;;
21743;SDS011;11034;48.556;9.342;2022-07-19T09:56:31;5.00;;;2.85;;
21743;SDS011;11034;48.556;9.342;2022-07-19T09:58:59;4.50;;;2.80;;
21743;SDS011;11034;48.556;9.342;2022-07-19T10:01:28;5.15;;;2.70;;
21743;SDS011;11034;48.556;9.342;2022-07-19T10:03:58;6.07;;;2.88;;
21743;SDS011;11034;48.556;9.342;2022-07-19T10:06:30;5.07;;;2.67;;
21743;SDS011;11034;48.556;9.342;2022-07-19T10:08:59;5.65;;;2.63;;
21743;SDS011;11034;48.556;9.342;2022-07-19T10:11:29;5.07;;;3.00;;
21743;SDS011;11034;48.556;9.342;2022-07-19T10:13:57;7.50;;;3.90;;
21743;SDS011;11034;48.556;9.342;2022-07-19T10:16:28;5.32;;;2.97;;
21743;SDS011;11034;48.556;9.342;2022-07-19T10:19:10;7.65;;;3.50;;
21743;SDS011;11034;48.556;9.342;2022-07-19T10:21:45;5.22;;;3.05;;
21743;SDS011;11034;48.556;9.342;2022-07-19T10:24:14;5.35;;;3.10;;
21743;SDS011;11034;48.556;9.342;2022-07-19T10:26:42;6.18;;;3.20;;
21743;SDS011;11034;48.556;9.342;2022-07-19T10:29:11;7.13;;;3.10;;
21743;SDS011;11034;48.556;9.342;2022-07-19T10:31:43;23.38;;;3.80;;
21743;SDS011;11034;48.556;9.342;2022-07-19T10:34:29;7.28;;;3.72;;
21743;SDS011;11034;48.556;9.342;2022-07-19T10:36:59;8.30;;;2.97;;
21743;SDS011;11034;48.556;9.342;2022-07-19T10:39:27;5.85;;;3.30;;
21743;SDS011;11034;48.556;9.342;2022-07-19T10:42:07;9.40;;;3.10;;
21743;SDS011;11034;48.556;9.342;2022-07-19T10:50:53;8.02;;;2.95;;
21743;SDS011;11034;48.556;9.342;2022-07-19T10:56:35;9.30;;;3.10;;
21743;SDS011;11034;48.556;9.342;2022-07-19T10:59:29;3.90;;;2.70;;
21743;SDS011;11034;48.556;9.342;2022-07-19T11:01:58;5.18;;;3.25;;
21743;SDS011;11034;48.556;9.342;2022-07-19T11:04:49;6.10;;;3.20;;
21743;SDS011;11034;48.556;9.342;2022-07-19T11:07:20;7.10;;;3.22;;
21743;SDS011;11034;48.556;9.342;2022-07-19T11:09:52;8.73;;;3.35;;
21743;SDS011;11034;48.556;9.342;2022-07-19T11:12:22;5.85;;;3.35;;
21743;SDS011;11034;48.556;9.342;2022-07-19T11:15:00;4.65;;;3.15;;
21743;SDS011;11034;48.556;9.342;2022-07-19T11:17:52;7.55;;;3.33;;
21743;SDS011;11034;48.556;9.342;2022-07-19T11:20:22;6.65;;;3.22;;
21743;SDS011;11034;48.556;9.342;2022-07-19T11:22:51;9.68;;;3.58;;
21743;SDS011;11034;48.556;9.342;2022-07-19T11:25:25;7.80;;;3.33;;
21743;SDS011;11034;48.556;9.342;2022-07-19T11:27:54;7.30;;;2.95;;
21743;SDS011;11034;48.556;9.342;2022-07-19T11:30:23;7.10;;;3.35;;
21743;SDS011;11034;48.556;9.342;2022-07-19T11:32:53;10.40;;;3.22;;
21743;SDS011;11034;48.556;9.342;2022-07-19T11:35:23;5.63;;;2.90;;
21743;SDS011;11034;48.556;9.342;2022-07-19T11:37:52;6.03;;;2.90;;
21743;SDS011;11034;48.556;9.342;2022-07-19T11:40:21;6.60;;;3.10;;
21743;SDS011;11034;48.556;9.342;2022-07-19T11:42:52;8.95;;;2.90;;
21743;SDS011;11034;48.556;9.342;2022-07-19T11:45:40;4.95;;;2.72;;
21743;SDS011;11034;48.556;9.342;2022-07-19T11:48:11;7.32;;;2.90;;
21743;SDS011;11034;48.556;9.342;2022-07-19T11:50:39;9.77;;;2.83;;
21743;SDS011;11034;48.556;9.342;2022-07-19T11:53:18;4.00;;;2.65;;
21743;SDS011;11034;48.556;9.342;2022-07-19T11:55:48;5.28;;;2.80;;
21743;SDS011;11034;48.556;9.342;2022-07-19T11:58:17;7.85;;;3.00;;
21743;SDS011;11034;48.556;9.342;2022-07-19T12:00:45;6.45;;;2.72;;
21743;SDS011;11034;48.556;9.342;2022-07-19T12:03:14;6.15;;;2.72;;
21743;SDS011;11034;48.556;9.342;2022-07-19T12:05:53;5.97;;;2.75;;
21743;SDS011;11034;48.556;9.342;2022-07-19T12:08:34;6.30;;;2.78;;
21743;SDS011;11034;48.556;9.342;2022-07-19T12:11:19;6.05;;;2.63;;
21743;SDS011;11034;48.556;9.342;2022-07-19T12:13:49;8.63;;;2.78;;
21743;SDS011;11034;48.556;9.342;2022-07-19T12:16:18;8.75;;;2.80;;
21743;SDS011;11034;48.556;9.342;2022-07-19T12:18:50;6.30;;;2.50;;
21743;SDS011;11034;48.556;9.342;2022-07-19T12:21:21;7.57;;;2.40;;
21743;SDS011;11034;48.556;9.342;2022-07-19T12:24:14;6.03;;;2.65;;
21743;SDS011;11034;48.556;9.342;2022-07-19T12:26:56;5.80;;;2.60;;
21743;SDS011;11034;48.556;9.342;2022-07-19T12:29:26;4.80;;;2.67;;
21743;SDS011;11034;48.556;9.342;2022-07-19T12:31:57;5.35;;;2.63;;
21743;SDS011;11034;48.556;9.342;2022-07-19T12:34:27;7.47;;;2.63;;
21743;SDS011;11034;48.556;9.342;2022-07-19T12:36:56;4.88;;;2.20;;
21743;SDS011;11034;48.556;9.342;2022-07-19T12:39:25;4.35;;;2.33;;
21743;SDS011;11034;48.556;9.342;2022-07-19T12:41:57;7.78;;;2.40;;
21743;SDS011;11034;48.556;9.342;2022-07-19T12:44:27;8.77;;;2.85;;
21743;SDS011;11034;48.556;9.342;2022-07-19T12:46:56;6.78;;;2.78;;
21743;SDS011;11034;48.556;9.342;2022-07-19T12:49:45;7.43;;;2.60;;
21743;SDS011;11034;48.556;9.342;2022-07-19T12:52:27;5.70;;;2.38;;
21743;SDS011;11034;48.556;9.342;2022-07-19T12:54:55;5.15;;;2.58;;
21743;SDS011;11034;48.556;9.342;2022-07-19T12:57:24;5.32;;;2.42;;
21743;SDS011;11034;48.556;9.342;2022-07-19T12:59:55;8.18;;;2.70;;
21743;SDS011;11034;48.556;9.342;2022-07-19T13:02:23;5.60;;;2.83;;
21743;SDS011;11034;48.556;9.342;2022-07-19T13:04:51;5.40;;;2.70;;
21743;SDS011;11034;48.556;9.342;2022-07-19T13:07:19;6.70;;;3.10;;
21743;SDS011;11034;48.556;9.342;2022-07-19T13:09:48;6.35;;;2.63;;
21743;SDS011;11034;48.556;9.342;2022-07-19T13:12:16;6.88;;;3.17;;
21743;SDS011;11034;48.556;9.342;2022-07-19T13:14:45;7.40;;;3.00;;
21743;SDS011;11034;48.556;9.342;2022-07-19T13:17:14;6.80;;;2.90;;
21743;SDS011;11034;48.556;9.342;2022-07-19T13:19:42;11.95;;;3.10;;
21743;SDS011;11034;48.556;9.342;2022-07-19T13:22:10;8.38;;;2.90;;
21743;SDS011;11034;48.556;9.342;2022-07-19T13:24:39;5.35;;;2.90;;
21743;SDS011;11034;48.556;9.342;2022-07-19T13:27:27;6.97;;;3.10;;
21743;SDS011;11034;48.556;9.342;2022-07-19T13:29:57;9.02;;;3.42;;
21743;SDS011;11034;48.556;9.342;2022-07-19T13:32:25;7.70;;;2.88;;
21743;SDS011;11034;48.556;9.342;2022-07-19T13:34:53;5.85;;;2.83;;
21743;SDS011;11034;48.556;9.342;2022-07-19T13:37:22;5.53;;;2.85;;
21743;SDS011;11034;48.556;9.342;2022-07-19T13:39:50;6.38;;;2.90;;
21743;SDS011;11034;48.556;9.342;2022-07-19T13:42:18;5.70;;;2.72;;
21743;SDS011;11034;48.556;9.342;2022-07-19T13:44:46;10.55;;;2.70;;
21743;SDS011;11034;48.556;9.342;2022-07-19T13:47:16;8.18;;;3.33;;
21743;SDS011;11034;48.556;9.342;2022-07-19T13:49:44;6.30;;;3.28;;
21743;SDS011;11034;48.556;9.342;2022-07-19T13:52:12;8.60;;;3.28;;
21743;SDS011;11034;48.556;9.342;2022-07-19T13:54:40;9.05;;;2.90;;
21743;SDS011;11034;48.556;9.342;2022-07-19T13:57:08;5.93;;;2.88;;
21743;SDS011;11034;48.556;9.342;2022-07-19T13:59:36;8.98;;;3.08;;
21743;SDS011;11034;48.556;9.342;2022-07-19T14:02:04;5.78;;;2.70;;
21743;SDS011;11034;48.556;9.342;2022-07-19T14:04:34;5.40;;;2.70;;
21743;SDS011;11034;48.556;9.342;2022-07-19T14:07:02;10.10;;;3.55;;
21743;SDS011;11034;48.556;9.342;2022-07-19T14:09:30;9.98;;;3.13;;
21743;SDS011;11034;48.556;9.342;2022-07-19T14:12:00;8.73;;;2.40;;
21743;SDS011;11034;48.556;9.342;2022-07-19T14:14:28;4.75;;;2.63;;
21743;SDS011;11034;48.556;9.342;2022-07-19T14:16:56;6.20;;;2.85;;
21743;SDS011;11034;48.556;9.342;2022-07-19T14:19:24;4.97;;;2.53;;
21743;SDS011;11034;48.556;9.342;2022-07-19T14:21:54;4.63;;;2.70;;
21743;SDS011;11034;48.556;9.342;2022-07-19T14:24:23;8.23;;;3.00;;
21743;SDS011;11034;48.556;9.342;2022-07-19T14:26:51;9.43;;;2.83;;
21743;SDS011;11034;48.556;9.342;2022-07-19T14:29:19;7.70;;;2.70;;
21743;SDS011;11034;48.556;9.342;2022-07-19T14:31:48;7.85;;;2.70;;
21743;SDS011;11034;48.556;9.342;2022-07-19T14:34:16;9.90;;;2.83;;
21743;SDS011;11034;48.556;9.342;2022-07-19T14:37:04;7.03;;;3.10;;
21743;SDS011;11034;48.556;9.342;2022-07-19T14:39:32;4.28;;;2.88;;
21743;SDS011;11034;48.556;9.342;2022-07-19T14:42:01;7.10;;;2.78;;
21743;SDS011;11034;48.556;9.342;2022-07-19T14:44:30;9.57;;;3.10;;
21743;SDS011;11034;48.556;9.342;2022-07-19T14:46:58;7.45;;;2.97;;
21743;SDS011;11034;48.556;9.342;2022-07-19T14:49:27;8.13;;;2.80;;
21743;SDS011;11034;48.556;9.342;2022-07-19T14:51:55;9.48;;;2.67;;
21743;SDS011;11034;48.556;9.342;2022-07-19T14:54:25;8.82;;;2.83;;
21743;SDS011;11034;48.556;9.342;2022-07-19T14:56:53;6.70;;;2.67;;
21743;SDS011;11034;48.556;9.342;2022-07-19T14:59:22;6.40;;;2.78;;
21743;SDS011;11034;48.556;9.342;2022-07-19T15:01:51;7.32;;;2.80;;
21743;SDS011;11034;48.556;9.342;2022-07-19T15:04:19;4.85;;;2.90;;
21743;SDS011;11034;48.556;9.342;2022-07-19T15:06:47;7.78;;;3.03;;
21743;SDS011;11034;48.556;9.342;2022-07-19T15:09:15;12.10;;;2.90;;
21743;SDS011;11034;48.556;9.342;2022-07-19T15:11:45;6.40;;;2.67;;
21743;SDS011;11034;48.556;9.342;2022-07-19T15:14:13;5.63;;;2.85;;